sensor_id;sensor_type;location;lat;lon;timestamp;P1;durP1;ratioP1;P2;durP2;ratioP2
65202;SDS011;51788;45.124;38.966;2023-06-14T00:02:20;12.88;;;7.60;;
65202;SDS011;51788;45.124;38.966;2023-06-14T00:04:46;9.38;;;6.20;;
65202;SDS011;51788;45.124;38.966;2023-06-14T00:07:13;16.95;;;7.10;;
65202;SDS011;51788;45.124;38.966;2023-06-14T00:09:41;18.85;;;6.72;;
65202;SDS011;51788;45.124;38.966;2023-06-14T00:12:08;12.63;;;7.50;;
65202;SDS011;51788;45.124;38.966;2023-06-14T00:14:34;19.65;;;6.57;;
65202;SDS011;51788;45.124;38.966;2023-06-14T00:17:00;9.57;;;6.13;;
65202;SDS011;51788;45.124;38.966;2023-06-14T00:19:26;22.20;;;6.88;;
65202;SDS011;51788;45.124;38.966;2023-06-14T00:21:52;14.75;;;6.35;;
65202;SDS011;51788;45.124;38.966;2023-06-14T00:24:18;8.65;;;6.60;;
65202;SDS011;51788;45.124;38.966;2023-06-14T00:26:45;16.30;;;6.57;;
65202;SDS011;51788;45.124;38.966;2023-06-14T00:29:12;15.93;;;6.72;;
65202;SDS011;51788;45.124;38.966;2023-06-14T00:31:38;18.20;;;6.65;;
65202;SDS011;51788;45.124;38.966;2023-06-14T00:34:04;16.23;;;6.68;;
65202;SDS011;51788;45.124;38.966;2023-06-14T00:36:30;11.60;;;6.22;;
65202;SDS011;51788;45.124;38.966;2023-06-14T00:38:56;8.40;;;6.10;;
65202;SDS011;51788;45.124;38.966;2023-06-14T00:41:22;24.33;;;5.85;;
65202;SDS011;51788;45.124;38.966;2023-06-14T00:43:48;15.93;;;5.95;;
65202;SDS011;51788;45.124;38.966;2023-06-14T00:46:14;16.63;;;6.30;;
65202;SDS011;51788;45.124;38.966;2023-06-14T00:48:40;11.25;;;6.18;;
65202;SDS011;51788;45.124;38.966;2023-06-14T00:51:07;12.48;;;5.80;;
65202;SDS011;51788;45.124;38.966;2023-06-14T00:53:33;14.85;;;7.68;;
65202;SDS011;51788;45.124;38.966;2023-06-14T00:56:01;14.77;;;6.10;;
65202;SDS011;51788;45.124;38.966;2023-06-14T00:58:27;7.07;;;5.72;;
65202;SDS011;51788;45.124;38.966;2023-06-14T01:00:53;11.07;;;5.82;;
65202;SDS011;51788;45.124;38.966;2023-06-14T01:03:19;9.25;;;6.20;;
65202;SDS011;51788;45.124;38.966;2023-06-14T01:05:47;10.15;;;5.88;;
65202;SDS011;51788;45.124;38.966;2023-06-14T01:08:23;7.82;;;6.07;;
65202;SDS011;51788;45.124;38.966;2023-06-14T01:11:00;10.75;;;6.00;;
65202;SDS011;51788;45.124;38.966;2023-06-14T01:13:42;16.50;;;6.25;;
65202;SDS011;51788;45.124;38.966;2023-06-14T01:16:11;11.82;;;6.85;;
65202;SDS011;51788;45.124;38.966;2023-06-14T01:18:37;14.07;;;6.97;;
65202;SDS011;51788;45.124;38.966;2023-06-14T01:21:04;16.92;;;6.63;;
65202;SDS011;51788;45.124;38.966;2023-06-14T01:23:31;15.30;;;7.65;;
65202;SDS011;51788;45.124;38.966;2023-06-14T01:25:58;14.02;;;7.55;;
65202;SDS011;51788;45.124;38.966;2023-06-14T01:28:25;10.20;;;6.88;;
65202;SDS011;51788;45.124;38.966;2023-06-14T01:30:58;14.73;;;6.70;;
65202;SDS011;51788;45.124;38.966;2023-06-14T01:33:29;11.48;;;7.45;;
65202;SDS011;51788;45.124;38.966;2023-06-14T01:35:57;11.77;;;7.35;;
65202;SDS011;51788;45.124;38.966;2023-06-14T01:38:25;17.20;;;7.65;;
65202;SDS011;51788;45.124;38.966;2023-06-14T01:40:52;13.52;;;7.97;;
65202;SDS011;51788;45.124;38.966;2023-06-14T01:43:20;9.23;;;7.15;;
65202;SDS011;51788;45.124;38.966;2023-06-14T01:45:48;15.40;;;8.00;;
65202;SDS011;51788;45.124;38.966;2023-06-14T01:48:17;12.57;;;7.78;;
65202;SDS011;51788;45.124;38.966;2023-06-14T01:50:44;12.80;;;7.53;;
65202;SDS011;51788;45.124;38.966;2023-06-14T01:53:10;14.90;;;8.10;;
65202;SDS011;51788;45.124;38.966;2023-06-14T01:55:36;11.57;;;7.38;;
65202;SDS011;51788;45.124;38.966;2023-06-14T01:58:05;6.05;;;5.10;;
65202;SDS011;51788;45.124;38.966;2023-06-14T02:00:32;6.65;;;4.85;;
65202;SDS011;51788;45.124;38.966;2023-06-14T02:02:58;8.02;;;4.57;;
65202;SDS011;51788;45.124;38.966;2023-06-14T02:05:25;4.85;;;4.22;;
65202;SDS011;51788;45.124;38.966;2023-06-14T02:07:52;6.18;;;5.22;;
65202;SDS011;51788;45.124;38.966;2023-06-14T02:10:18;5.05;;;4.63;;
65202;SDS011;51788;45.124;38.966;2023-06-14T02:12:46;10.80;;;4.65;;
65202;SDS011;51788;45.124;38.966;2023-06-14T02:15:12;6.05;;;5.15;;
65202;SDS011;51788;45.124;38.966;2023-06-14T02:17:48;10.10;;;4.53;;
65202;SDS011;51788;45.124;38.966;2023-06-14T02:20:17;11.75;;;5.20;;
65202;SDS011;51788;45.124;38.966;2023-06-14T02:22:43;8.18;;;4.80;;
65202;SDS011;51788;45.124;38.966;2023-06-14T02:25:10;11.73;;;5.00;;
65202;SDS011;51788;45.124;38.966;2023-06-14T02:27:39;8.38;;;5.65;;
65202;SDS011;51788;45.124;38.966;2023-06-14T02:30:05;7.72;;;5.82;;
65202;SDS011;51788;45.124;38.966;2023-06-14T02:32:31;7.72;;;6.03;;
65202;SDS011;51788;45.124;38.966;2023-06-14T02:34:59;12.07;;;6.45;;
65202;SDS011;51788;45.124;38.966;2023-06-14T02:37:25;11.95;;;6.55;;
65202;SDS011;51788;45.124;38.966;2023-06-14T02:39:52;11.60;;;6.88;;
65202;SDS011;51788;45.124;38.966;2023-06-14T02:42:18;9.70;;;6.57;;
65202;SDS011;51788;45.124;38.966;2023-06-14T02:44:44;10.85;;;6.80;;
65202;SDS011;51788;45.124;38.966;2023-06-14T02:47:11;10.82;;;6.70;;
65202;SDS011;51788;45.124;38.966;2023-06-14T02:49:37;13.70;;;7.53;;
65202;SDS011;51788;45.124;38.966;2023-06-14T02:52:03;7.63;;;6.63;;
65202;SDS011;51788;45.124;38.966;2023-06-14T02:54:30;11.00;;;7.50;;
65202;SDS011;51788;45.124;38.966;2023-06-14T02:56:57;14.27;;;8.13;;
65202;SDS011;51788;45.124;38.966;2023-06-14T02:59:23;26.13;;;8.57;;
65202;SDS011;51788;45.124;38.966;2023-06-14T03:01:53;12.90;;;7.88;;
65202;SDS011;51788;45.124;38.966;2023-06-14T03:04:19;9.45;;;7.13;;
65202;SDS011;51788;45.124;38.966;2023-06-14T03:06:46;16.08;;;7.72;;
65202;SDS011;51788;45.124;38.966;2023-06-14T03:09:18;8.50;;;7.57;;
65202;SDS011;51788;45.124;38.966;2023-06-14T03:11:45;13.07;;;7.63;;
65202;SDS011;51788;45.124;38.966;2023-06-14T03:14:11;14.55;;;8.55;;
65202;SDS011;51788;45.124;38.966;2023-06-14T03:16:41;11.27;;;7.78;;
65202;SDS011;51788;45.124;38.966;2023-06-14T03:19:10;9.38;;;7.82;;
65202;SDS011;51788;45.124;38.966;2023-06-14T03:21:37;25.45;;;9.00;;
65202;SDS011;51788;45.124;38.966;2023-06-14T03:24:04;16.80;;;8.48;;
65202;SDS011;51788;45.124;38.966;2023-06-14T03:26:32;11.63;;;8.23;;
65202;SDS011;51788;45.124;38.966;2023-06-14T03:28:59;14.32;;;7.97;;
65202;SDS011;51788;45.124;38.966;2023-06-14T03:31:28;16.88;;;8.43;;
65202;SDS011;51788;45.124;38.966;2023-06-14T03:33:59;9.93;;;8.38;;
65202;SDS011;51788;45.124;38.966;2023-06-14T03:36:26;14.77;;;7.32;;
65202;SDS011;51788;45.124;38.966;2023-06-14T03:38:54;11.57;;;6.88;;
65202;SDS011;51788;45.124;38.966;2023-06-14T03:41:20;27.33;;;9.52;;
65202;SDS011;51788;45.124;38.966;2023-06-14T03:43:48;11.60;;;8.40;;
65202;SDS011;51788;45.124;38.966;2023-06-14T03:46:14;17.50;;;9.23;;
65202;SDS011;51788;45.124;38.966;2023-06-14T03:48:41;11.15;;;7.53;;
65202;SDS011;51788;45.124;38.966;2023-06-14T03:51:07;20.60;;;11.07;;
65202;SDS011;51788;45.124;38.966;2023-06-14T03:53:34;17.13;;;9.13;;
65202;SDS011;51788;45.124;38.966;2023-06-14T03:56:02;17.05;;;9.23;;
65202;SDS011;51788;45.124;38.966;2023-06-14T03:58:37;12.63;;;8.77;;
65202;SDS011;51788;45.124;38.966;2023-06-14T04:01:03;12.25;;;8.68;;
65202;SDS011;51788;45.124;38.966;2023-06-14T04:03:30;14.57;;;8.93;;
65202;SDS011;51788;45.124;38.966;2023-06-14T04:05:59;17.40;;;9.07;;
65202;SDS011;51788;45.124;38.966;2023-06-14T04:08:26;16.55;;;8.73;;
65202;SDS011;51788;45.124;38.966;2023-06-14T04:10:52;18.70;;;8.35;;
65202;SDS011;51788;45.124;38.966;2023-06-14T04:13:18;17.30;;;8.52;;
65202;SDS011;51788;45.124;38.966;2023-06-14T04:15:44;17.58;;;8.70;;
65202;SDS011;51788;45.124;38.966;2023-06-14T04:18:16;17.05;;;8.65;;
65202;SDS011;51788;45.124;38.966;2023-06-14T04:20:43;17.60;;;8.40;;
65202;SDS011;51788;45.124;38.966;2023-06-14T04:23:12;14.90;;;9.02;;
65202;SDS011;51788;45.124;38.966;2023-06-14T04:25:40;12.43;;;8.90;;
65202;SDS011;51788;45.124;38.966;2023-06-14T04:28:11;20.75;;;9.73;;
65202;SDS011;51788;45.124;38.966;2023-06-14T04:30:38;19.33;;;9.20;;
65202;SDS011;51788;45.124;38.966;2023-06-14T04:33:06;15.55;;;9.73;;
65202;SDS011;51788;45.124;38.966;2023-06-14T04:35:33;13.73;;;9.90;;
65202;SDS011;51788;45.124;38.966;2023-06-14T04:38:02;21.85;;;12.20;;
65202;SDS011;51788;45.124;38.966;2023-06-14T04:40:32;16.13;;;12.30;;
65202;SDS011;51788;45.124;38.966;2023-06-14T04:42:59;17.15;;;11.35;;
65202;SDS011;51788;45.124;38.966;2023-06-14T04:45:26;19.92;;;11.77;;
65202;SDS011;51788;45.124;38.966;2023-06-14T04:48:00;21.88;;;10.60;;
65202;SDS011;51788;45.124;38.966;2023-06-14T04:50:27;23.30;;;9.75;;
65202;SDS011;51788;45.124;38.966;2023-06-14T04:52:55;13.82;;;9.50;;
65202;SDS011;51788;45.124;38.966;2023-06-14T04:55:22;20.92;;;9.90;;
65202;SDS011;51788;45.124;38.966;2023-06-14T04:57:48;14.65;;;8.70;;
65202;SDS011;51788;45.124;38.966;2023-06-14T05:00:19;15.63;;;8.68;;
65202;SDS011;51788;45.124;38.966;2023-06-14T05:02:45;11.82;;;8.45;;
65202;SDS011;51788;45.124;38.966;2023-06-14T05:05:12;17.60;;;8.55;;
65202;SDS011;51788;45.124;38.966;2023-06-14T05:07:38;15.00;;;7.28;;
65202;SDS011;51788;45.124;38.966;2023-06-14T05:10:04;10.60;;;7.43;;
65202;SDS011;51788;45.124;38.966;2023-06-14T05:12:31;8.23;;;6.55;;
65202;SDS011;51788;45.124;38.966;2023-06-14T05:14:57;12.60;;;7.25;;
65202;SDS011;51788;45.124;38.966;2023-06-14T05:17:27;13.48;;;7.00;;
65202;SDS011;51788;45.124;38.966;2023-06-14T05:19:53;11.18;;;6.88;;
65202;SDS011;51788;45.124;38.966;2023-06-14T05:22:21;11.55;;;7.32;;
65202;SDS011;51788;45.124;38.966;2023-06-14T05:24:47;21.48;;;8.60;;
65202;SDS011;51788;45.124;38.966;2023-06-14T05:27:13;21.02;;;8.45;;
65202;SDS011;51788;45.124;38.966;2023-06-14T05:29:39;9.20;;;6.88;;
65202;SDS011;51788;45.124;38.966;2023-06-14T05:32:05;15.07;;;7.30;;
65202;SDS011;51788;45.124;38.966;2023-06-14T05:34:32;11.70;;;8.45;;
65202;SDS011;51788;45.124;38.966;2023-06-14T05:36:57;14.98;;;7.85;;
65202;SDS011;51788;45.124;38.966;2023-06-14T05:39:24;9.68;;;7.25;;
65202;SDS011;51788;45.124;38.966;2023-06-14T05:41:50;14.57;;;7.28;;
65202;SDS011;51788;45.124;38.966;2023-06-14T05:44:16;12.20;;;8.57;;
65202;SDS011;51788;45.124;38.966;2023-06-14T05:46:41;20.55;;;8.73;;
65202;SDS011;51788;45.124;38.966;2023-06-14T05:49:09;20.17;;;8.55;;
65202;SDS011;51788;45.124;38.966;2023-06-14T05:51:35;9.30;;;8.18;;
65202;SDS011;51788;45.124;38.966;2023-06-14T05:54:01;13.25;;;7.35;;
65202;SDS011;51788;45.124;38.966;2023-06-14T05:56:26;10.68;;;8.50;;
65202;SDS011;51788;45.124;38.966;2023-06-14T05:58:53;15.45;;;8.07;;
65202;SDS011;51788;45.124;38.966;2023-06-14T06:01:19;14.82;;;7.85;;
65202;SDS011;51788;45.124;38.966;2023-06-14T06:03:45;16.73;;;8.82;;
65202;SDS011;51788;45.124;38.966;2023-06-14T06:06:12;14.90;;;8.32;;
65202;SDS011;51788;45.124;38.966;2023-06-14T06:08:38;9.68;;;8.77;;
65202;SDS011;51788;45.124;38.966;2023-06-14T06:11:04;12.20;;;8.45;;
65202;SDS011;51788;45.124;38.966;2023-06-14T06:13:30;11.63;;;8.27;;
65202;SDS011;51788;45.124;38.966;2023-06-14T06:15:56;24.42;;;8.88;;
65202;SDS011;51788;45.124;38.966;2023-06-14T06:18:22;13.30;;;8.90;;
65202;SDS011;51788;45.124;38.966;2023-06-14T06:20:48;13.43;;;8.85;;
65202;SDS011;51788;45.124;38.966;2023-06-14T06:23:14;14.73;;;9.70;;
65202;SDS011;51788;45.124;38.966;2023-06-14T06:25:40;14.52;;;9.75;;
65202;SDS011;51788;45.124;38.966;2023-06-14T06:28:06;13.60;;;9.45;;
65202;SDS011;51788;45.124;38.966;2023-06-14T06:30:32;21.48;;;9.60;;
65202;SDS011;51788;45.124;38.966;2023-06-14T06:32:58;14.90;;;8.30;;
65202;SDS011;51788;45.124;38.966;2023-06-14T06:35:24;15.80;;;8.45;;
65202;SDS011;51788;45.124;38.966;2023-06-14T06:37:50;11.02;;;8.75;;
65202;SDS011;51788;45.124;38.966;2023-06-14T06:40:17;14.57;;;8.73;;
65202;SDS011;51788;45.124;38.966;2023-06-14T06:42:42;14.52;;;8.32;;
65202;SDS011;51788;45.124;38.966;2023-06-14T06:45:11;15.70;;;8.15;;
65202;SDS011;51788;45.124;38.966;2023-06-14T06:47:37;10.70;;;7.97;;
65202;SDS011;51788;45.124;38.966;2023-06-14T06:50:03;17.38;;;8.20;;
65202;SDS011;51788;45.124;38.966;2023-06-14T06:52:31;19.85;;;9.13;;
65202;SDS011;51788;45.124;38.966;2023-06-14T06:54:57;16.52;;;8.23;;
65202;SDS011;51788;45.124;38.966;2023-06-14T06:57:23;13.57;;;7.85;;
65202;SDS011;51788;45.124;38.966;2023-06-14T06:59:49;9.55;;;7.70;;
65202;SDS011;51788;45.124;38.966;2023-06-14T07:02:15;8.63;;;7.50;;
65202;SDS011;51788;45.124;38.966;2023-06-14T07:04:42;9.95;;;7.75;;
65202;SDS011;51788;45.124;38.966;2023-06-14T07:07:08;9.13;;;8.13;;
65202;SDS011;51788;45.124;38.966;2023-06-14T07:09:35;14.57;;;7.35;;
65202;SDS011;51788;45.124;38.966;2023-06-14T07:12:01;13.02;;;7.13;;
65202;SDS011;51788;45.124;38.966;2023-06-14T07:14:27;12.27;;;8.05;;
65202;SDS011;51788;45.124;38.966;2023-06-14T07:16:53;11.25;;;7.60;;
65202;SDS011;51788;45.124;38.966;2023-06-14T07:19:19;11.07;;;6.85;;
65202;SDS011;51788;45.124;38.966;2023-06-14T07:21:46;15.82;;;7.72;;
65202;SDS011;51788;45.124;38.966;2023-06-14T07:24:12;12.43;;;6.32;;
65202;SDS011;51788;45.124;38.966;2023-06-14T07:26:38;8.05;;;5.90;;
65202;SDS011;51788;45.124;38.966;2023-06-14T07:29:04;14.50;;;6.05;;
65202;SDS011;51788;45.124;38.966;2023-06-14T07:31:30;11.30;;;5.70;;
65202;SDS011;51788;45.124;38.966;2023-06-14T07:33:56;9.70;;;5.65;;
65202;SDS011;51788;45.124;38.966;2023-06-14T07:36:22;14.40;;;5.97;;
65202;SDS011;51788;45.124;38.966;2023-06-14T07:38:48;9.65;;;6.05;;
65202;SDS011;51788;45.124;38.966;2023-06-14T07:41:15;11.55;;;5.80;;
65202;SDS011;51788;45.124;38.966;2023-06-14T07:43:41;11.73;;;5.72;;
65202;SDS011;51788;45.124;38.966;2023-06-14T07:46:07;8.10;;;5.43;;
65202;SDS011;51788;45.124;38.966;2023-06-14T07:48:36;6.53;;;5.05;;
65202;SDS011;51788;45.124;38.966;2023-06-14T07:51:02;6.68;;;5.57;;
65202;SDS011;51788;45.124;38.966;2023-06-14T07:53:29;6.20;;;4.93;;
65202;SDS011;51788;45.124;38.966;2023-06-14T07:55:56;11.95;;;5.70;;
65202;SDS011;51788;45.124;38.966;2023-06-14T07:58:22;7.88;;;5.28;;
65202;SDS011;51788;45.124;38.966;2023-06-14T08:00:48;5.78;;;4.88;;
65202;SDS011;51788;45.124;38.966;2023-06-14T08:03:14;10.25;;;5.10;;
65202;SDS011;51788;45.124;38.966;2023-06-14T08:05:40;5.65;;;4.80;;
65202;SDS011;51788;45.124;38.966;2023-06-14T08:08:06;4.88;;;4.40;;
65202;SDS011;51788;45.124;38.966;2023-06-14T08:10:32;5.50;;;4.80;;
65202;SDS011;51788;45.124;38.966;2023-06-14T08:12:58;8.77;;;4.40;;
65202;SDS011;51788;45.124;38.966;2023-06-14T08:15:24;8.73;;;5.00;;
65202;SDS011;51788;45.124;38.966;2023-06-14T08:17:50;8.20;;;4.65;;
65202;SDS011;51788;45.124;38.966;2023-06-14T08:20:16;9.68;;;5.25;;
65202;SDS011;51788;45.124;38.966;2023-06-14T08:22:42;7.03;;;4.78;;
65202;SDS011;51788;45.124;38.966;2023-06-14T08:25:09;5.65;;;4.35;;
65202;SDS011;51788;45.124;38.966;2023-06-14T08:27:37;10.57;;;5.30;;
65202;SDS011;51788;45.124;38.966;2023-06-14T08:30:03;11.38;;;5.18;;
65202;SDS011;51788;45.124;38.966;2023-06-14T08:32:29;7.93;;;4.22;;
65202;SDS011;51788;45.124;38.966;2023-06-14T08:34:55;10.07;;;4.50;;
65202;SDS011;51788;45.124;38.966;2023-06-14T08:37:21;4.78;;;4.20;;
65202;SDS011;51788;45.124;38.966;2023-06-14T08:39:47;5.78;;;3.95;;
65202;SDS011;51788;45.124;38.966;2023-06-14T08:42:14;9.52;;;4.28;;
65202;SDS011;51788;45.124;38.966;2023-06-14T08:44:40;7.40;;;4.30;;
65202;SDS011;51788;45.124;38.966;2023-06-14T08:47:07;10.23;;;5.28;;
65202;SDS011;51788;45.124;38.966;2023-06-14T08:49:34;10.75;;;4.30;;
65202;SDS011;51788;45.124;38.966;2023-06-14T08:52:03;5.68;;;4.43;;
65202;SDS011;51788;45.124;38.966;2023-06-14T08:54:33;6.00;;;4.05;;
65202;SDS011;51788;45.124;38.966;2023-06-14T08:57:02;7.75;;;4.72;;
65202;SDS011;51788;45.124;38.966;2023-06-14T08:59:32;7.22;;;4.65;;
65202;SDS011;51788;45.124;38.966;2023-06-14T09:02:05;10.18;;;4.07;;
65202;SDS011;51788;45.124;38.966;2023-06-14T09:04:32;6.38;;;3.78;;
65202;SDS011;51788;45.124;38.966;2023-06-14T09:06:58;5.28;;;3.67;;
65202;SDS011;51788;45.124;38.966;2023-06-14T09:09:24;8.65;;;4.05;;
65202;SDS011;51788;45.124;38.966;2023-06-14T09:11:51;10.32;;;4.10;;
65202;SDS011;51788;45.124;38.966;2023-06-14T09:14:18;5.15;;;4.20;;
65202;SDS011;51788;45.124;38.966;2023-06-14T09:16:44;11.90;;;4.32;;
65202;SDS011;51788;45.124;38.966;2023-06-14T09:19:14;10.30;;;4.25;;
65202;SDS011;51788;45.124;38.966;2023-06-14T09:21:47;8.63;;;4.30;;
65202;SDS011;51788;45.124;38.966;2023-06-14T09:24:14;9.05;;;4.35;;
65202;SDS011;51788;45.124;38.966;2023-06-14T09:26:40;8.63;;;4.50;;
65202;SDS011;51788;45.124;38.966;2023-06-14T09:29:06;12.43;;;5.53;;
65202;SDS011;51788;45.124;38.966;2023-06-14T09:31:32;11.63;;;5.05;;
65202;SDS011;51788;45.124;38.966;2023-06-14T09:33:58;29.65;;;5.55;;
65202;SDS011;51788;45.124;38.966;2023-06-14T09:36:28;4.97;;;4.07;;
65202;SDS011;51788;45.124;38.966;2023-06-14T09:38:57;7.15;;;4.78;;
65202;SDS011;51788;45.124;38.966;2023-06-14T09:43:59;5.05;;;4.55;;
65202;SDS011;51788;45.124;38.966;2023-06-14T09:46:27;4.60;;;3.97;;
65202;SDS011;51788;45.124;38.966;2023-06-14T09:48:57;5.13;;;4.18;;
65202;SDS011;51788;45.124;38.966;2023-06-14T09:51:25;8.20;;;4.30;;
65202;SDS011;51788;45.124;38.966;2023-06-14T09:53:52;6.10;;;4.57;;
65202;SDS011;51788;45.124;38.966;2023-06-14T09:56:30;5.55;;;3.67;;
65202;SDS011;51788;45.124;38.966;2023-06-14T09:58:57;7.22;;;4.03;;
65202;SDS011;51788;45.124;38.966;2023-06-14T10:01:25;10.18;;;4.40;;
65202;SDS011;51788;45.124;38.966;2023-06-14T10:03:55;8.63;;;4.25;;
65202;SDS011;51788;45.124;38.966;2023-06-14T10:08:53;5.15;;;4.05;;
65202;SDS011;51788;45.124;38.966;2023-06-14T10:11:25;9.00;;;4.28;;
65202;SDS011;51788;45.124;38.966;2023-06-14T10:13:55;24.10;;;4.75;;
65202;SDS011;51788;45.124;38.966;2023-06-14T10:16:24;4.80;;;3.67;;
65202;SDS011;51788;45.124;38.966;2023-06-14T10:19:42;8.50;;;4.00;;
65202;SDS011;51788;45.124;38.966;2023-06-14T10:22:12;4.78;;;3.80;;
65202;SDS011;51788;45.124;38.966;2023-06-14T10:24:44;5.07;;;3.55;;
65202;SDS011;51788;45.124;38.966;2023-06-14T10:27:14;5.40;;;3.70;;
65202;SDS011;51788;45.124;38.966;2023-06-14T10:32:18;5.25;;;3.97;;
65202;SDS011;51788;45.124;38.966;2023-06-14T10:34:45;4.10;;;3.80;;
65202;SDS011;51788;45.124;38.966;2023-06-14T10:37:37;4.28;;;3.40;;
65202;SDS011;51788;45.124;38.966;2023-06-14T10:40:03;5.75;;;3.40;;
65202;SDS011;51788;45.124;38.966;2023-06-14T10:42:33;7.10;;;3.67;;
65202;SDS011;51788;45.124;38.966;2023-06-14T10:44:59;7.80;;;3.90;;
65202;SDS011;51788;45.124;38.966;2023-06-14T10:47:26;4.07;;;3.78;;
65202;SDS011;51788;45.124;38.966;2023-06-14T10:50:12;5.43;;;3.53;;
65202;SDS011;51788;45.124;38.966;2023-06-14T10:52:40;16.10;;;3.67;;
65202;SDS011;51788;45.124;38.966;2023-06-14T10:55:07;4.50;;;3.80;;
65202;SDS011;51788;45.124;38.966;2023-06-14T10:57:48;11.82;;;4.03;;
65202;SDS011;51788;45.124;38.966;2023-06-14T11:00:18;5.38;;;3.70;;
65202;SDS011;51788;45.124;38.966;2023-06-14T11:05:28;10.27;;;3.83;;
65202;SDS011;51788;45.124;38.966;2023-06-14T11:11:06;6.95;;;4.50;;
65202;SDS011;51788;45.124;38.966;2023-06-14T11:13:33;9.38;;;3.65;;
65202;SDS011;51788;45.124;38.966;2023-06-14T11:16:00;7.05;;;3.10;;
65202;SDS011;51788;45.124;38.966;2023-06-14T11:18:25;16.05;;;3.58;;
65202;SDS011;51788;45.124;38.966;2023-06-14T11:20:53;4.18;;;3.55;;
65202;SDS011;51788;45.124;38.966;2023-06-14T11:23:20;8.45;;;3.70;;
65202;SDS011;51788;45.124;38.966;2023-06-14T11:25:53;5.10;;;3.30;;
65202;SDS011;51788;45.124;38.966;2023-06-14T11:31:05;13.88;;;3.90;;
65202;SDS011;51788;45.124;38.966;2023-06-14T11:33:31;8.52;;;3.75;;
65202;SDS011;51788;45.124;38.966;2023-06-14T11:35:57;30.08;;;4.18;;
65202;SDS011;51788;45.124;38.966;2023-06-14T11:38:41;7.60;;;3.50;;
65202;SDS011;51788;45.124;38.966;2023-06-14T11:41:07;10.43;;;3.20;;
65202;SDS011;51788;45.124;38.966;2023-06-14T11:43:33;23.17;;;3.63;;
65202;SDS011;51788;45.124;38.966;2023-06-14T11:46:00;7.72;;;3.22;;
65202;SDS011;51788;45.124;38.966;2023-06-14T11:48:37;16.67;;;4.60;;
65202;SDS011;51788;45.124;38.966;2023-06-14T11:51:06;4.43;;;3.75;;
65202;SDS011;51788;45.124;38.966;2023-06-14T11:53:33;11.20;;;2.97;;
65202;SDS011;51788;45.124;38.966;2023-06-14T11:55:59;8.70;;;3.40;;
65202;SDS011;51788;45.124;38.966;2023-06-14T11:58:26;6.63;;;3.40;;
65202;SDS011;51788;45.124;38.966;2023-06-14T12:00:53;10.98;;;3.50;;
65202;SDS011;51788;45.124;38.966;2023-06-14T12:03:23;3.42;;;3.10;;
65202;SDS011;51788;45.124;38.966;2023-06-14T12:06:06;7.13;;;3.38;;
65202;SDS011;51788;45.124;38.966;2023-06-14T12:08:37;6.05;;;3.53;;
65202;SDS011;51788;45.124;38.966;2023-06-14T12:11:07;5.13;;;2.80;;
65202;SDS011;51788;45.124;38.966;2023-06-14T12:13:39;11.10;;;3.15;;
65202;SDS011;51788;45.124;38.966;2023-06-14T12:16:29;12.07;;;3.42;;
65202;SDS011;51788;45.124;38.966;2023-06-14T12:19:15;6.38;;;2.50;;
65202;SDS011;51788;45.124;38.966;2023-06-14T14:21:28;12.13;;;5.43;;
65202;SDS011;51788;45.124;38.966;2023-06-14T14:23:54;11.15;;;4.70;;
65202;SDS011;51788;45.124;38.966;2023-06-14T14:26:20;17.23;;;5.50;;
65202;SDS011;51788;45.124;38.966;2023-06-14T14:28:46;9.52;;;5.22;;
65202;SDS011;51788;45.124;38.966;2023-06-14T14:31:12;10.60;;;5.15;;
65202;SDS011;51788;45.124;38.966;2023-06-14T14:33:38;16.88;;;4.95;;
65202;SDS011;51788;45.124;38.966;2023-06-14T14:36:04;12.98;;;4.85;;
65202;SDS011;51788;45.124;38.966;2023-06-14T14:38:31;9.32;;;4.88;;
65202;SDS011;51788;45.124;38.966;2023-06-14T14:40:57;7.05;;;4.40;;
65202;SDS011;51788;45.124;38.966;2023-06-14T14:43:35;15.30;;;5.28;;
65202;SDS011;51788;45.124;38.966;2023-06-14T14:46:01;5.22;;;4.55;;
65202;SDS011;51788;45.124;38.966;2023-06-14T14:48:27;6.20;;;4.90;;
65202;SDS011;51788;45.124;38.966;2023-06-14T14:50:53;19.08;;;6.30;;
65202;SDS011;51788;45.124;38.966;2023-06-14T14:53:20;6.45;;;4.60;;
65202;SDS011;51788;45.124;38.966;2023-06-14T14:55:46;4.97;;;3.80;;
65202;SDS011;51788;45.124;38.966;2023-06-14T14:58:12;11.13;;;4.85;;
65202;SDS011;51788;45.124;38.966;2023-06-14T15:00:39;6.45;;;4.68;;
65202;SDS011;51788;45.124;38.966;2023-06-14T15:03:05;22.50;;;5.55;;
65202;SDS011;51788;45.124;38.966;2023-06-14T15:05:31;16.85;;;6.25;;
65202;SDS011;51788;45.124;38.966;2023-06-14T15:07:57;9.85;;;5.82;;
65202;SDS011;51788;45.124;38.966;2023-06-14T15:10:23;14.10;;;5.53;;
65202;SDS011;51788;45.124;38.966;2023-06-14T15:12:49;9.55;;;6.03;;
65202;SDS011;51788;45.124;38.966;2023-06-14T15:15:15;15.07;;;5.82;;
65202;SDS011;51788;45.124;38.966;2023-06-14T15:17:41;11.10;;;5.50;;
65202;SDS011;51788;45.124;38.966;2023-06-14T15:20:07;7.07;;;6.07;;
65202;SDS011;51788;45.124;38.966;2023-06-14T15:22:33;7.28;;;6.03;;
65202;SDS011;51788;45.124;38.966;2023-06-14T15:24:59;9.77;;;5.85;;
65202;SDS011;51788;45.124;38.966;2023-06-14T15:27:25;12.15;;;6.20;;
65202;SDS011;51788;45.124;38.966;2023-06-14T15:29:51;22.10;;;6.85;;
65202;SDS011;51788;45.124;38.966;2023-06-14T15:32:17;13.32;;;6.35;;
65202;SDS011;51788;45.124;38.966;2023-06-14T15:34:43;15.80;;;6.65;;
65202;SDS011;51788;45.124;38.966;2023-06-14T15:37:09;11.32;;;6.78;;
65202;SDS011;51788;45.124;38.966;2023-06-14T15:39:35;11.40;;;7.07;;
65202;SDS011;51788;45.124;38.966;2023-06-14T15:42:02;8.60;;;6.97;;
65202;SDS011;51788;45.124;38.966;2023-06-14T15:44:28;12.30;;;6.28;;
65202;SDS011;51788;45.124;38.966;2023-06-14T15:46:54;10.77;;;5.68;;
65202;SDS011;51788;45.124;38.966;2023-06-14T15:49:20;8.05;;;6.32;;
65202;SDS011;51788;45.124;38.966;2023-06-14T15:51:46;13.00;;;6.82;;
65202;SDS011;51788;45.124;38.966;2023-06-14T15:54:12;7.45;;;6.70;;
65202;SDS011;51788;45.124;38.966;2023-06-14T15:56:38;8.95;;;6.32;;
65202;SDS011;51788;45.124;38.966;2023-06-14T15:59:04;17.45;;;7.63;;
65202;SDS011;51788;45.124;38.966;2023-06-14T16:01:32;20.10;;;7.10;;
65202;SDS011;51788;45.124;38.966;2023-06-14T16:03:58;13.57;;;6.88;;
65202;SDS011;51788;45.124;38.966;2023-06-14T16:06:24;12.50;;;6.07;;
65202;SDS011;51788;45.124;38.966;2023-06-14T16:08:50;8.70;;;6.03;;
65202;SDS011;51788;45.124;38.966;2023-06-14T16:11:17;8.82;;;6.28;;
65202;SDS011;51788;45.124;38.966;2023-06-14T16:13:45;9.68;;;5.80;;
65202;SDS011;51788;45.124;38.966;2023-06-14T16:16:11;19.85;;;6.15;;
65202;SDS011;51788;45.124;38.966;2023-06-14T16:18:37;16.92;;;5.88;;
65202;SDS011;51788;45.124;38.966;2023-06-14T16:21:03;10.82;;;6.10;;
65202;SDS011;51788;45.124;38.966;2023-06-14T16:26:19;15.23;;;6.95;;
65202;SDS011;51788;45.124;38.966;2023-06-14T16:28:45;13.52;;;6.95;;
65202;SDS011;51788;45.124;38.966;2023-06-14T16:31:14;12.82;;;7.53;;
65202;SDS011;51788;45.124;38.966;2023-06-14T16:33:41;11.73;;;8.15;;
65202;SDS011;51788;45.124;38.966;2023-06-14T16:36:07;15.50;;;9.32;;
65202;SDS011;51788;45.124;38.966;2023-06-14T16:38:33;22.00;;;11.05;;
65202;SDS011;51788;45.124;38.966;2023-06-14T16:40:59;21.17;;;7.70;;
65202;SDS011;51788;45.124;38.966;2023-06-14T16:46:30;13.15;;;7.30;;
65202;SDS011;51788;45.124;38.966;2023-06-14T16:48:57;18.77;;;8.05;;
65202;SDS011;51788;45.124;38.966;2023-06-14T16:54:27;17.85;;;7.75;;